Time;durP1;ratioP1;P1;durP2;ratioP2;P2;SDS_P1;SDS_P2;PMS_P1;PMS_P2;Temp;Humidity;BMP_temperature;BMP_pressure;BME280_temperature;BME280_humidity;BME280_pressure;Samples;Min_cycle;Max_cycle;Signal;HPM_P1;HPM_P2
2021/01/08 00:02:26;;;;;;;1.07;0.97;;;;;;;2.59;74.23;99384.94;1738152;81;21181;-88
2021/01/08 00:04:54;;;;;;;0.40;0.40;;;;;;;2.64;74.11;99387.11;1743855;82;21183;-85
2021/01/08 00:07:22;;;;;;;0.23;0.23;;;;;;;2.61;74.11;99390.86;1722620;82;21126;-87
2021/01/08 00:09:51;;;;;;;1.60;0.53;;;;;;;2.57;74.04;99387.41;1713522;82;21238;-87
2021/01/08 00:12:18;;;;;;;0.33;0.33;;;;;;;2.55;74.01;99385.44;1702545;82;21602;-90
2021/01/08 00:14:49;;;;;;;0.50;0.50;;;;;;;2.53;73.93;99371.94;1714609;82;21317;-90
2021/01/08 00:17:16;;;;;;;0.77;0.77;;;;;;;2.52;73.82;99393.13;1711057;82;21259;-89
2021/01/08 00:19:43;;;;;;;0.50;0.50;;;;;;;2.61;73.15;99395.31;1713893;82;21208;-88
2021/01/08 00:22:13;;;;;;;0.50;0.30;;;;;;;2.60;72.99;99403.70;1696614;82;21198;-87
2021/01/08 00:24:42;;;;;;;0.33;0.20;;;;;;;2.49;73.59;99394.28;1716042;81;21138;-88
2021/01/08 00:27:11;;;;;;;0.33;0.20;;;;;;;2.43;73.71;99398.03;1734828;82;21196;-88
2021/01/08 00:29:39;;;;;;;0.40;0.40;;;;;;;2.40;74.03;99403.62;1716084;82;21274;-88
2021/01/08 00:32:10;;;;;;;1.37;0.90;;;;;;;2.46;73.62;99410.88;1726177;81;21222;-86
2021/01/08 00:34:37;;;;;;;0.87;0.27;;;;;;;2.53;72.95;99407.45;1712188;82;21319;-87
2021/01/08 00:37:04;;;;;;;0.40;0.10;;;;;;;2.49;73.45;99406.13;1706838;81;21299;-87
2021/01/08 00:39:31;;;;;;;0.43;0.43;;;;;;;2.42;73.40;99409.05;1713140;82;21164;-87
2021/01/08 00:42:01;;;;;;;0.20;0.20;;;;;;;2.41;73.67;99415.31;1704980;80;21279;-92
2021/01/08 00:44:28;;;;;;;0.33;0.30;;;;;;;2.39;73.54;99407.23;1732232;80;21180;-89
2021/01/08 00:46:56;;;;;;;1.07;0.20;;;;;;;2.45;73.42;99424.99;1726619;80;21278;-89
2021/01/08 00:49:29;;;;;;;0.37;0.10;;;;;;;2.60;72.87;99412.06;1716864;81;21184;-87
2021/01/08 00:51:56;;;;;;;0.47;0.30;;;;;;;2.59;72.69;99415.70;1693407;83;21654;-89
2021/01/08 00:54:28;;;;;;;0.13;0.10;;;;;;;2.53;73.02;99407.95;1718726;81;21173;-89
2021/01/08 00:57:30;;;;;;;0.50;0.40;;;;;;;2.50;72.80;99409.57;1806166;77;23749;-90
2021/01/08 00:59:58;;;;;;;0.70;0.30;;;;;;;2.22;72.73;99381.34;1813786;78;21168;-90
2021/01/08 01:02:27;;;;;;;0.20;0.20;;;;;;;2.33;73.09;99421.33;1816801;78;21175;-89
2021/01/08 01:05:00;;;;;;;0.40;0.40;;;;;;;2.45;72.70;99413.16;1817840;79;21168;-89
2021/01/08 01:07:29;;;;;;;0.43;0.27;;;;;;;2.51;72.64;99419.13;1814461;78;21177;-89
2021/01/08 01:09:58;;;;;;;0.23;0.23;;;;;;;2.45;72.97;99420.58;1795310;78;21656;-90
2021/01/08 01:12:25;;;;;;;0.30;0.20;;;;;;;2.38;73.14;99428.77;1816403;78;21160;-91
2021/01/08 01:14:52;;;;;;;0.30;0.30;;;;;;;2.32;73.27;99428.91;1818511;78;21183;-91
2021/01/08 01:17:20;;;;;;;0.20;0.20;;;;;;;2.33;73.20;99427.09;1807357;78;21710;-90
2021/01/08 01:19:49;;;;;;;0.17;0.17;;;;;;;2.45;72.51;99438.15;1810827;78;21176;-90
2021/01/08 01:22:17;;;;;;;0.50;0.30;;;;;;;2.43;72.55;99434.38;1780600;80;21172;-93
2021/01/08 01:24:44;;;;;;;0.63;0.23;;;;;;;2.34;72.98;99442.72;1753090;81;21275;-92
2021/01/08 01:27:13;;;;;;;1.53;0.20;;;;;;;2.28;73.19;99421.47;1752202;81;21196;-91
2021/01/08 01:29:40;;;;;;;0.30;0.20;;;;;;;1.56;73.05;99333.70;1754920;80;21176;-90
2021/01/08 01:32:08;;;;;;;0.30;0.17;;;;;;;2.20;72.96;99433.27;1766313;81;21389;-88
2021/01/08 01:34:37;;;;;;;0.20;0.20;;;;;;;2.28;72.67;99437.25;1766177;81;21138;-87
2021/01/08 01:37:04;;;;;;;0.20;0.20;;;;;;;2.40;72.19;99433.38;1716840;82;21105;-85
2021/01/08 01:39:33;;;;;;;0.53;0.20;;;;;;;2.40;72.05;99443.08;1693305;83;21596;-86
2021/01/08 01:42:00;;;;;;;0.50;0.20;;;;;;;2.37;71.92;99440.75;1660919;83;21220;-88
2021/01/08 01:44:27;;;;;;;0.63;0.57;;;;;;;2.34;71.77;99447.16;1689713;83;21350;-85
2021/01/08 01:46:54;;;;;;;0.43;0.20;;;;;;;2.29;71.80;99461.27;1685979;83;21218;-86
2021/01/08 01:49:21;;;;;;;0.40;0.40;;;;;;;2.23;71.39;99467.16;1695141;83;21203;-86
2021/01/08 01:51:49;;;;;;;0.47;0.20;;;;;;;2.29;71.55;99469.16;1737303;81;21158;-84
2021/01/08 01:54:19;;;;;;;0.63;0.33;;;;;;;2.30;71.00;99459.80;1718926;82;21228;-88
2021/01/08 01:56:46;;;;;;;1.73;0.30;;;;;;;2.23;71.32;99463.20;1724722;82;21192;-86
2021/01/08 01:59:13;;;;;;;0.33;0.33;;;;;;;2.19;71.32;99464.01;1742047;80;21304;-86
2021/01/08 02:01:40;;;;;;;0.73;0.73;;;;;;;2.13;71.59;99460.20;1751096;80;21182;-88
2021/01/08 02:04:07;;;;;;;0.30;0.30;;;;;;;2.12;71.87;99470.36;1754136;80;21311;-88
2021/01/08 02:06:39;;;;;;;0.30;0.30;;;;;;;2.22;71.79;99457.60;1764212;79;21085;-86
2021/01/08 02:09:09;;;;;;;0.30;0.20;;;;;;;2.31;71.23;99473.27;1750717;80;21867;-86
2021/01/08 02:11:36;;;;;;;0.27;0.27;;;;;;;2.30;71.64;99474.76;1759743;80;21221;-87
2021/01/08 02:14:24;;;;;;;0.20;0.20;;;;;;;2.26;71.51;99474.24;1743191;80;21197;-88
2021/01/08 02:16:52;;;;;;;0.20;0.20;;;;;;;2.23;71.42;99471.91;1724037;77;21124;-89
2021/01/08 02:19:40;;;;;;;0.60;0.57;;;;;;;2.21;71.52;99480.45;1700666;83;21177;-89
2021/01/08 02:22:16;;;;;;;0.20;0.20;;;;;;;2.28;71.37;99474.91;1718723;82;21195;-90
2021/01/08 02:24:47;;;;;;;0.20;0.20;;;;;;;2.40;70.73;99478.09;1711564;79;21176;-87
2021/01/08 02:27:14;;;;;;;0.50;0.30;;;;;;;2.32;70.77;99482.81;1684328;81;21156;-89
2021/01/08 02:29:44;;;;;;;0.30;0.20;;;;;;;2.25;71.15;99484.91;1720361;80;21340;-90
2021/01/08 02:32:11;;;;;;;0.20;0.20;;;;;;;2.24;71.40;99492.45;1712397;81;21178;-88
2021/01/08 02:34:44;;;;;;;0.30;0.20;;;;;;;2.25;71.68;99493.61;1710708;82;21197;-89
2021/01/08 02:37:13;;;;;;;0.20;0.20;;;;;;;2.40;71.67;99487.79;1703863;81;21732;-88
2021/01/08 02:39:42;;;;;;;0.37;0.37;;;;;;;2.42;71.55;99499.80;1708451;82;21187;-89
2021/01/08 02:42:12;;;;;;;0.30;0.30;;;;;;;2.36;71.87;99504.87;1714238;82;21771;-91
2021/01/08 02:44:41;;;;;;;0.70;0.30;;;;;;;2.31;72.06;99506.13;1716531;82;21192;-90
2021/01/08 02:47:09;;;;;;;0.30;0.20;;;;;;;2.26;72.38;99498.37;1716955;82;21856;-89
2021/01/08 02:49:36;;;;;;;0.20;0.20;;;;;;;2.25;72.56;99510.70;1712064;82;21321;-89
2021/01/08 02:52:05;;;;;;;1.07;0.33;;;;;;;2.39;72.21;99521.63;1711279;82;21768;-89
2021/01/08 02:54:32;;;;;;;0.20;0.20;;;;;;;2.37;72.34;99515.70;1661809;84;21234;-89
2021/01/08 02:57:02;;;;;;;0.30;0.30;;;;;;;2.34;72.50;99524.74;1727709;82;21200;-88
2021/01/08 02:59:29;;;;;;;0.20;0.20;;;;;;;2.30;72.52;99513.70;1699049;83;21248;-89
2021/01/08 03:01:56;;;;;;;0.20;0.20;;;;;;;2.24;72.20;99520.91;1720369;82;21197;-90
2021/01/08 03:04:24;;;;;;;1.13;0.20;;;;;;;2.31;72.34;99524.55;1711321;82;21208;-89
2021/01/08 03:06:52;;;;;;;0.50;0.37;;;;;;;2.38;72.32;99519.50;1690491;82;21147;-89
2021/01/08 03:09:19;;;;;;;0.40;0.40;;;;;;;2.35;72.11;99518.48;1656114;83;21619;-89
2021/01/08 03:11:54;;;;;;;1.17;0.40;;;;;;;2.35;72.09;99522.44;1702143;83;21236;-89
2021/01/08 03:14:23;;;;;;;0.60;0.60;;;;;;;2.37;72.12;99513.89;1732598;81;21190;-90
2021/01/08 03:16:52;;;;;;;0.60;0.60;;;;;;;2.34;71.72;99524.25;1737142;81;21171;-90
2021/01/08 03:19:23;;;;;;;0.60;0.60;;;;;;;2.44;71.62;99533.34;1767511;80;21178;-88
2021/01/08 03:21:51;;;;;;;0.80;0.80;;;;;;;2.33;71.01;99500.73;1767214;80;21155;-92
2021/01/08 03:24:18;;;;;;;0.50;0.40;;;;;;;2.43;71.49;99533.02;1762246;80;21132;-90
2021/01/08 03:26:46;;;;;;;0.80;0.40;;;;;;;2.41;71.57;99543.34;1735088;81;21172;-89
2021/01/08 03:29:13;;;;;;;0.67;0.37;;;;;;;2.42;71.56;99543.69;1712358;82;21160;-91
2021/01/08 03:31:41;;;;;;;0.77;0.40;;;;;;;2.42;71.51;99543.69;1759399;80;21544;-91
2021/01/08 03:34:09;;;;;;;0.30;0.30;;;;;;;2.49;71.33;99552.13;1764387;80;21808;-91
2021/01/08 03:36:37;;;;;;;0.40;0.40;;;;;;;2.63;70.95;99552.02;1727122;81;21187;-90
2021/01/08 03:39:06;;;;;;;0.30;0.30;;;;;;;2.68;71.01;99558.97;1681171;83;21361;-89
2021/01/08 03:41:33;;;;;;;0.50;0.50;;;;;;;2.68;70.99;99562.09;1709946;82;21190;-86
2021/01/08 03:44:00;;;;;;;0.93;0.80;;;;;;;2.67;70.90;99563.88;1703642;83;21226;-86
2021/01/08 03:46:27;;;;;;;0.97;0.90;;;;;;;2.64;70.70;99560.77;1708446;82;21151;-86
2021/01/08 03:48:54;;;;;;;2.40;2.20;;;;;;;2.60;70.73;99560.72;1703357;79;21426;-87
2021/01/08 03:51:21;;;;;;;2.80;2.60;;;;;;;2.63;70.72;99577.52;1671923;83;21245;-88
2021/01/08 03:53:49;;;;;;;6.00;5.40;;;;;;;2.69;70.21;99578.20;1705554;82;21195;-88
2021/01/08 03:56:16;;;;;;;5.30;4.87;;;;;;;2.61;70.45;99578.98;1707206;82;21545;-88
2021/01/08 03:58:43;;;;;;;4.50;4.10;;;;;;;2.51;70.52;99576.97;1722214;82;21195;-89
2021/01/08 04:01:10;;;;;;;5.20;4.80;;;;;;;2.46;70.94;99589.25;1712681;83;21209;-87
2021/01/08 04:03:39;;;;;;;2.20;2.00;;;;;;;2.43;71.14;99580.37;1706256;82;21229;-90
2021/01/08 04:06:08;;;;;;;0.90;0.90;;;;;;;2.53;71.10;99583.70;1693152;83;21247;-92
2021/01/08 04:08:36;;;;;;;1.17;0.60;;;;;;;2.72;70.64;99585.30;1742310;82;21197;-91
2021/01/08 04:11:06;;;;;;;0.90;0.90;;;;;;;2.76;70.60;99587.13;1686672;84;21231;-91
2021/01/08 04:13:41;;;;;;;1.47;1.40;;;;;;;2.68;70.53;99592.36;1711847;82;21317;-91
2021/01/08 04:16:12;;;;;;;5.53;5.03;;;;;;;2.64;70.79;99594.47;1724193;82;21339;-87
2021/01/08 04:18:57;;;;;;;3.40;3.20;;;;;;;2.65;71.03;99604.50;1716433;82;21212;-86
2021/01/08 04:21:24;;;;;;;1.83;1.73;;;;;;;2.64;71.21;99612.08;1709835;82;21219;-88
2021/01/08 04:23:52;;;;;;;1.37;1.33;;;;;;;2.68;71.15;99605.52;1710277;82;21219;-87
2021/01/08 04:26:19;;;;;;;1.27;1.27;;;;;;;2.76;71.00;99612.13;1715836;82;21184;-89
2021/01/08 04:28:46;;;;;;;1.77;1.67;;;;;;;2.71;71.18;99611.77;1715923;82;21206;-89
2021/01/08 04:31:16;;;;;;;1.63;1.53;;;;;;;2.65;71.52;99618.47;1698602;83;21156;-87
2021/01/08 04:33:44;;;;;;;2.50;2.30;;;;;;;2.66;71.73;99627.22;1720203;82;21199;-89
2021/01/08 04:36:12;;;;;;;4.20;3.90;;;;;;;2.63;71.76;99623.06;1720353;81;21138;-87
2021/01/08 04:38:39;;;;;;;1.57;1.53;;;;;;;2.70;71.67;99622.79;1733554;81;21216;-86
2021/01/08 04:41:07;;;;;;;1.40;1.30;;;;;;;2.83;71.29;99629.45;1726294;81;21200;-87
2021/01/08 04:43:35;;;;;;;3.17;2.10;;;;;;;2.78;71.49;99625.96;1735797;81;21183;-84
2021/01/08 04:46:15;;;;;;;2.40;2.20;;;;;;;2.73;71.85;99634.80;1735001;81;21445;-84
2021/01/08 04:48:42;;;;;;;3.43;3.13;;;;;;;2.71;72.04;99647.29;1761498;79;21691;-87
2021/01/08 04:51:12;;;;;;;2.33;2.13;;;;;;;2.71;72.07;99639.39;1720436;81;21302;-87
2021/01/08 04:53:39;;;;;;;2.67;2.47;;;;;;;2.80;71.97;99644.23;1739506;81;21645;-87
2021/01/08 04:56:08;;;;;;;2.00;1.90;;;;;;;2.90;71.65;99644.94;1747190;81;22327;-86
2021/01/08 04:58:35;;;;;;;1.77;1.63;;;;;;;2.83;71.68;99644.75;1738486;81;21314;-88
2021/01/08 05:01:03;;;;;;;2.00;1.90;;;;;;;2.73;71.96;99647.49;1714547;82;21225;-86
2021/01/08 05:03:32;;;;;;;2.03;1.83;;;;;;;2.73;72.27;99643.55;1737120;81;21321;-87
2021/01/08 05:05:59;;;;;;;2.67;2.47;;;;;;;2.84;72.08;99644.25;1685928;83;21534;-86
2021/01/08 05:08:27;;;;;;;4.07;2.97;;;;;;;2.84;72.17;99649.52;1738423;81;21230;-85
2021/01/08 05:10:58;;;;;;;2.33;2.20;;;;;;;2.78;71.99;99649.64;1734735;81;21640;-87
2021/01/08 05:13:37;;;;;;;3.33;3.07;;;;;;;2.77;72.22;99654.59;1673330;84;21196;-90
2021/01/08 05:16:04;;;;;;;3.27;3.08;;;;;;;2.78;72.40;99652.28;1730476;81;21184;-89
2021/01/08 05:18:32;;;;;;;4.13;2.93;;;;;;;2.84;72.30;99649.02;1726571;81;21192;-88
2021/01/08 05:21:03;;;;;;;3.27;2.97;;;;;;;3.00;72.02;99654.07;1735450;82;21292;-89
2021/01/08 05:23:30;;;;;;;3.23;3.03;;;;;;;3.02;72.06;99653.42;1734528;83;21160;-88
2021/01/08 05:25:57;;;;;;;3.83;3.27;;;;;;;2.94;72.30;99655.52;1736352;81;21217;-88
2021/01/08 05:28:26;;;;;;;2.73;2.50;;;;;;;2.87;72.49;99647.91;1738298;81;21171;-88
2021/01/08 05:31:01;;;;;;;3.27;2.97;;;;;;;2.81;72.68;99654.61;1737494;80;21125;-88
2021/01/08 05:33:27;;;;;;;4.43;4.03;;;;;;;2.81;72.83;99655.92;1718039;80;21116;-88
2021/01/08 05:35:57;;;;;;;4.30;4.00;;;;;;;2.92;72.54;99642.50;1688165;80;21142;-88
2021/01/08 05:38:27;;;;;;;6.00;5.40;;;;;;;2.95;72.60;99644.48;1721468;81;21251;-88
2021/01/08 05:41:02;;;;;;;4.40;4.07;;;;;;;2.91;72.57;99641.34;1729234;80;21175;-91
2021/01/08 05:43:37;;;;;;;5.67;5.10;;;;;;;2.89;72.70;99641.48;1748650;80;21794;-89
2021/01/08 05:46:17;;;;;;;4.17;3.77;;;;;;;2.89;72.73;99653.33;1715274;83;21390;-89
2021/01/08 05:48:52;;;;;;;5.10;4.07;;;;;;;3.00;72.44;99669.37;1737877;81;21136;-91
2021/01/08 05:54:14;;;;;;;6.70;5.77;;;;;;;3.11;71.93;99686.22;1794290;79;23110;-88
2021/01/08 05:56:43;;;;;;;9.40;6.50;;;;;;;3.04;71.92;99696.22;1787116;78;21191;-88
2021/01/08 05:59:12;;;;;;;5.77;5.13;;;;;;;2.96;71.96;99704.05;1678375;81;21208;-85
2021/01/08 06:01:40;;;;;;;6.47;5.60;;;;;;;2.99;71.90;99715.59;1769666;80;21155;-86
2021/01/08 06:04:08;;;;;;;6.23;5.63;;;;;;;3.03;71.70;99709.03;1751262;80;21265;-89
2021/01/08 06:06:43;;;;;;;8.17;7.20;;;;;;;2.95;71.94;99720.34;1696808;80;21114;-89
2021/01/08 06:09:15;;;;;;;7.67;6.90;;;;;;;2.89;72.15;99709.11;1659577;85;21689;-90
2021/01/08 06:11:45;;;;;;;10.23;7.90;;;;;;;2.87;72.15;99720.29;1666555;85;21204;-90
2021/01/08 06:14:14;;;;;;;6.67;5.67;;;;;;;2.94;72.12;99718.70;1666109;85;21193;-89
2021/01/08 06:16:44;;;;;;;10.20;7.47;;;;;;;3.11;71.52;99736.75;1670056;84;21205;-90
2021/01/08 06:19:16;;;;;;;10.13;7.50;;;;;;;3.09;71.30;99740.03;1669357;84;21205;-90
2021/01/08 06:21:51;;;;;;;10.37;8.37;;;;;;;3.01;71.66;99743.41;1662799;85;21686;-89
2021/01/08 06:24:25;;;;;;;8.83;7.13;;;;;;;2.95;71.61;99744.53;1669223;84;21202;-89
2021/01/08 06:26:54;;;;;;;10.13;8.50;;;;;;;2.93;71.84;99737.59;1661453;85;21204;-89
2021/01/08 06:29:30;;;;;;;9.07;7.60;;;;;;;2.93;71.84;99746.81;1670682;84;21197;-89
2021/01/08 06:32:13;;;;;;;10.50;8.47;;;;;;;3.05;71.57;99755.78;1664942;85;21380;-88
2021/01/08 06:34:45;;;;;;;9.97;8.57;;;;;;;3.12;71.26;99760.27;1659418;85;21170;-88
2021/01/08 06:37:24;;;;;;;12.53;10.00;;;;;;;3.08;71.51;99756.30;1715599;82;21070;-89
2021/01/08 06:39:56;;;;;;;11.33;9.40;;;;;;;3.10;71.65;99756.15;1702569;82;21147;-89
2021/01/08 06:42:29;;;;;;;12.13;10.17;;;;;;;3.07;71.45;99771.78;1721649;81;21460;-89
2021/01/08 06:44:57;;;;;;;13.33;9.53;;;;;;;3.05;71.54;99780.80;1722481;82;21331;-89
2021/01/08 06:47:30;;;;;;;11.90;9.87;;;;;;;3.10;71.35;99773.27;1712871;82;21337;-89
2021/01/08 06:49:58;;;;;;;11.83;9.47;;;;;;;3.26;71.02;99780.47;1692762;83;21377;-87
2021/01/08 06:52:25;;;;;;;12.77;10.40;;;;;;;3.33;70.89;99792.02;1687496;84;21232;-90
2021/01/08 06:54:54;;;;;;;14.63;10.70;;;;;;;3.28;70.69;99787.73;1656060;83;21190;-89
2021/01/08 06:57:30;;;;;;;14.87;11.63;;;;;;;3.22;70.70;99794.44;1604636;84;21203;-91
2021/01/08 07:00:04;;;;;;;18.00;12.53;;;;;;;3.14;71.16;99804.08;1664377;85;21535;-88
2021/01/08 07:02:37;;;;;;;15.97;12.33;;;;;;;3.07;71.35;99805.16;1682111;84;21778;-89
2021/01/08 07:05:12;;;;;;;13.93;9.87;;;;;;;3.11;71.33;99798.14;1678335;84;21172;-91
2021/01/08 07:07:43;;;;;;;15.57;12.23;;;;;;;3.18;70.99;99798.83;1592053;89;21196;-90
2021/01/08 07:10:17;;;;;;;16.37;13.20;;;;;;;3.07;71.14;99806.01;1653817;86;21179;-92
2021/01/08 07:12:56;;;;;;;18.03;13.00;;;;;;;2.98;71.47;99816.14;1630002;85;21124;-91
2021/01/08 07:15:25;;;;;;;17.80;13.37;;;;;;;2.94;71.63;99810.84;1654630;83;21251;-90
2021/01/08 07:18:16;;;;;;;19.90;14.23;;;;;;;2.98;71.75;99821.41;1633867;87;21163;-91
2021/01/08 07:20:57;;;;;;;20.43;13.30;;;;;;;3.16;71.40;99825.81;1602676;87;21663;-91
2021/01/08 07:23:27;;;;;;;18.20;12.80;;;;;;;3.19;71.50;99830.78;1620853;86;21183;-91
2021/01/08 07:26:37;;;;;;;20.12;15.32;;;;;;;3.16;71.41;99816.09;1652627;87;21191;-92
2021/01/08 07:29:12;;;;;;;17.80;13.65;;;;;;;3.10;71.36;99824.62;1632969;87;21187;-87
2021/01/08 07:31:39;;;;;;;20.77;14.43;;;;;;;3.03;71.68;99820.94;1649983;85;21660;-87
2021/01/08 07:34:09;;;;;;;26.33;18.13;;;;;;;3.00;71.65;99831.78;1653979;85;21132;-90
2021/01/08 07:36:38;;;;;;;24.07;17.67;;;;;;;3.01;71.40;99833.42;1667596;84;21278;-88
2021/01/08 07:39:10;;;;;;;21.97;15.40;;;;;;;3.13;71.23;99838.80;1656733;85;21705;-90
2021/01/08 07:41:44;;;;;;;25.67;16.77;;;;;;;3.18;70.83;99843.60;1625241;87;21205;-88
2021/01/08 07:44:32;;;;;;;23.63;16.70;;;;;;;3.09;70.96;99846.19;1649650;85;21342;-90
2021/01/08 07:47:25;;;;;;;18.97;14.33;;;;;;;3.07;71.32;99851.24;1631512;85;21350;-88
2021/01/08 07:50:14;;;;;;;19.57;12.93;;;;;;;3.07;70.99;99857.83;1628517;86;21220;-91
2021/01/08 07:52:45;;;;;;;16.65;12.70;;;;;;;3.00;71.12;99851.53;1652118;85;21253;-88
2021/01/08 07:55:39;;;;;;;17.83;12.80;;;;;;;3.03;70.92;99865.70;1638470;86;21219;-88
2021/01/08 07:58:07;;;;;;;22.77;15.53;;;;;;;3.14;70.47;99868.09;1637300;86;21203;-87
2021/01/08 08:00:39;;;;;;;20.90;14.23;;;;;;;3.09;70.81;99865.11;1645190;86;21209;-92
2021/01/08 08:03:12;;;;;;;18.63;13.33;;;;;;;3.01;70.91;99876.38;1617175;86;21278;-88
2021/01/08 08:05:45;;;;;;;18.33;13.40;;;;;;;2.99;71.10;99865.66;1631034;85;21991;-90
2021/01/08 08:08:24;;;;;;;17.07;12.27;;;;;;;3.02;71.05;99865.38;1800737;78;22384;-90
2021/01/08 08:10:51;;;;;;;16.07;11.83;;;;;;;3.08;70.92;99869.53;1748785;81;21267;-89
2021/01/08 08:13:30;;;;;;;21.43;12.20;;;;;;;3.25;70.37;99871.81;1730574;81;21175;-89
2021/01/08 08:22:17;;;;;;;19.83;14.20;;;;;;;3.19;70.32;99881.64;1656925;84;21317;-94
2021/01/08 08:24:48;;;;;;;21.03;14.67;;;;;;;3.18;70.48;99874.71;1638123;86;21210;-91
2021/01/08 08:27:18;;;;;;;20.03;13.93;;;;;;;3.21;70.46;99868.33;1651389;86;21203;-90
2021/01/08 08:29:49;;;;;;;14.93;12.37;;;;;;;3.20;70.09;99880.68;1685122;83;21132;-91
2021/01/08 08:32:17;;;;;;;14.90;11.90;;;;;;;3.29;69.93;99865.75;1637540;86;21152;-91
2021/01/08 08:34:51;;;;;;;16.63;11.67;;;;;;;3.46;69.45;99877.24;1673939;83;21465;-94
2021/01/08 08:37:58;;;;;;;14.13;11.60;;;;;;;3.49;68.90;99872.49;1742870;80;24855;-90
2021/01/08 08:47:28;;;;;;;17.17;11.97;;;;;;;3.20;69.28;99884.63;1711598;81;21207;-94
2021/01/08 08:50:13;;;;;;;12.33;10.40;;;;;;;3.14;69.44;99898.38;1767483;79;21327;-91
2021/01/08 08:53:05;;;;;;;18.33;12.83;;;;;;;3.24;69.45;99894.34;1763567;79;21319;-93
2021/01/08 08:56:15;;;;;;;16.97;12.03;;;;;;;3.23;69.24;99886.94;1753068;80;21432;-92
2021/01/08 08:59:06;;;;;;;15.33;11.63;;;;;;;3.20;69.35;99901.75;1758720;80;21153;-94
2021/01/08 09:01:44;;;;;;;;;;;;;;;3.18;69.52;99894.46;1763798;79;21594;-91
2021/01/08 09:04:15;;;;;;;11.47;8.90;;;;;;;3.15;69.56;99904.00;1712408;80;20408;-92
2021/01/08 09:08:05;;;;;;;13.50;9.30;;;;;;;3.08;70.04;99898.50;1705626;81;21275;-90
2021/01/08 09:11:38;;;;;;;13.47;11.10;;;;;;;3.19;69.54;99894.00;1666185;84;21195;-91
2021/01/08 09:14:35;;;;;;;10.90;7.63;;;;;;;3.32;69.11;99901.02;1683145;82;21343;-93
2021/01/08 09:17:47;;;;;;;10.07;8.83;;;;;;;3.30;68.69;99899.03;1700660;83;21150;-93
2021/01/08 09:21:25;;;;;;;14.83;10.40;;;;;;;3.14;69.00;99906.78;1671021;82;21466;-91
2021/01/08 09:24:31;;;;;;;13.27;10.03;;;;;;;2.98;69.61;99915.37;1674999;82;21220;-89
2021/01/08 09:27:25;;;;;;;12.97;9.00;;;;;;;2.86;70.02;99912.95;1695394;82;21218;-91
2021/01/08 09:30:07;;;;;;;11.93;8.93;;;;;;;2.96;70.11;99921.24;1690101;83;21304;-93
2021/01/08 09:33:20;;;;;;;12.30;10.93;;;;;;;3.09;69.65;99912.52;1685815;82;21519;-93
2021/01/08 09:36:43;;;;;;;15.30;9.87;;;;;;;3.08;69.89;99918.74;1744874;79;21394;-91
2021/01/08 09:39:59;;;;;;;13.57;10.77;;;;;;;3.07;69.64;99911.80;1766640;79;21282;-91
2021/01/08 09:43:18;;;;;;;15.07;11.00;;;;;;;3.08;69.57;99924.83;1728647;81;21157;-92
2021/01/08 09:46:33;;;;;;;15.37;11.37;;;;;;;3.04;69.53;99919.53;1689597;82;21184;-92
2021/01/08 09:49:50;;;;;;;14.37;10.87;;;;;;;2.61;69.30;99857.89;1731586;81;21338;-93
2021/01/08 09:53:00;;;;;;;12.17;10.43;;;;;;;3.13;68.89;99929.66;1731408;81;21173;-92
2021/01/08 09:56:17;;;;;;;16.93;11.70;;;;;;;3.18;69.15;99935.28;1738931;81;21137;-93
2021/01/08 09:59:16;;;;;;;15.40;10.93;;;;;;;3.13;69.02;99927.03;1717669;81;21177;-90
2021/01/08 10:02:07;;;;;;;12.73;11.13;;;;;;;3.11;68.66;99928.98;1637740;83;21159;-89
2021/01/08 10:04:46;;;;;;;14.87;11.07;;;;;;;3.04;68.90;99923.98;1699905;82;21153;-92
2021/01/08 10:07:16;;;;;;;13.50;11.00;;;;;;;3.04;69.03;99924.80;1725360;81;21279;-91
2021/01/08 10:09:56;;;;;;;12.30;10.97;;;;;;;3.06;68.95;99914.94;1758335;80;21154;-90
2021/01/08 10:12:23;;;;;;;;;;;;;;;3.17;68.77;99917.03;1758493;79;21294;-91
2021/01/08 10:14:55;;;;;;;;;;;;;;;3.29;68.20;99907.90;1750094;79;20527;-91
2021/01/08 10:17:31;;;;;;;12.03;9.13;;;;;;;3.24;68.58;99911.47;1771611;79;20239;-95
2021/01/08 10:20:24;;;;;;;;;;;;;;;;;;;;;
2021/01/08 10:23:25;;;;;;;17.50;12.03;;;;;;;3.18;68.54;99910.77;1795877;79;22924;-91
2021/01/08 10:27:23;;;;;;;17.87;12.73;;;;;;;3.18;68.50;99903.68;1859221;75;23674;-91
2021/01/08 10:30:20;;;;;;;15.70;11.90;;;;;;;3.21;68.46;99916.56;1842952;75;21161;-90
2021/01/08 10:33:38;;;;;;;16.77;12.03;;;;;;;3.23;68.25;99917.23;1819005;76;21251;-94
2021/01/08 10:36:35;;;;;;;12.47;9.70;;;;;;;3.19;68.35;99929.55;1755839;77;21286;-91
2021/01/08 10:39:51;;;;;;;11.87;8.90;;;;;;;3.19;68.05;99915.06;1639115;83;21186;-92
2021/01/08 11:32:38;;;;;;;12.57;8.90;;;;;;;2.96;65.11;99937.89;1880416;74;27833;-88
2021/01/08 11:35:44;;;;;;;;;;;;;;;;;;;;;
2021/01/08 11:54:18;;;;;;;12.73;9.20;;;;;;;2.73;65.27;99940.94;1759805;79;22677;-90
2021/01/08 11:56:54;;;;;;;14.03;8.87;;;;;;;2.68;65.58;99954.20;1751915;79;21214;-90
2021/01/08 11:59:39;;;;;;;11.33;8.20;;;;;;;2.72;64.86;99964.27;1746838;80;22314;-91
2021/01/08 12:02:16;;;;;;;;;;;;;;;2.69;64.97;99965.89;1740143;80;21237;-90
2021/01/08 12:04:53;;;;;;;10.70;8.10;;;;;;;2.73;64.84;99963.77;1725934;80;20199;-92
2021/01/08 12:07:33;;;;;;;14.23;11.17;;;;;;;2.73;64.90;99965.09;1695438;82;22942;-90
2021/01/08 12:10:10;;;;;;;10.17;8.00;;;;;;;2.72;65.09;99966.08;1673904;83;21353;-89
2021/01/08 12:12:56;;;;;;;11.53;9.20;;;;;;;2.77;65.13;99967.80;1699981;82;21126;-89
2021/01/08 12:18:35;;;;;;;10.20;8.50;;;;;;;2.97;64.66;99967.67;1799902;79;23200;-92
2021/01/08 12:21:28;;;;;;;;;;;;;;;;;;;;;
2021/01/08 12:35:53;;;;;;;12.57;8.73;;;;;;;2.79;63.43;99963.20;1748104;80;23635;-88
2021/01/08 12:38:29;;;;;;;12.43;9.33;;;;;;;2.71;63.63;99971.84;1689541;82;21171;-90
2021/01/08 12:41:49;;;;;;;14.87;10.07;;;;;;;2.83;63.62;99967.70;1805737;77;23637;-91
2021/01/08 12:44:26;;;;;;;11.17;8.73;;;;;;;2.82;63.46;99975.23;1728282;82;21708;-89
2021/01/08 12:47:14;;;;;;;10.60;8.87;;;;;;;2.85;63.16;99974.45;1758061;79;21369;-92
2021/01/08 12:49:47;;;;;;;11.53;9.03;;;;;;;2.88;63.21;99979.44;1760550;79;21210;-90
2021/01/08 12:52:38;;;;;;;11.87;8.57;;;;;;;2.93;62.91;99986.38;1743124;81;21179;-91
2021/01/08 12:58:21;;;;;;;10.20;7.77;;;;;;;2.93;62.18;99982.44;1780835;77;22320;-95
2021/01/08 13:00:51;;;;;;;11.20;8.60;;;;;;;2.86;62.18;99993.70;1815188;77;21595;-88
2021/01/08 13:03:45;;;;;;;9.57;7.70;;;;;;;2.79;62.69;99997.42;1825735;77;21223;-92
2021/01/08 13:06:54;;;;;;;8.63;7.63;;;;;;;2.79;62.21;99988.22;1787913;78;21254;-91
2021/01/08 13:10:03;;;;;;;10.00;7.87;;;;;;;2.80;62.14;99987.72;1859099;75;27593;-93
2021/01/08 13:15:54;;;;;;;11.63;9.03;;;;;;;2.79;62.35;99992.16;1746861;80;24613;-94
2021/01/08 13:22:30;;;;;;;10.20;8.90;;;;;;;2.80;62.04;99989.03;1847268;76;23694;-93
2021/01/08 13:39:17;;;;;;;10.20;8.60;;;;;;;2.61;60.97;99982.88;1830078;76;22287;-93
2021/01/08 13:42:39;;;;;;;11.07;9.47;;;;;;;2.55;61.37;99989.23;1802067;79;27301;-92
2021/01/08 13:45:32;;;;;;;10.83;8.87;;;;;;;1.46;61.44;99810.97;1718887;81;21243;-93
2021/01/08 13:48:25;;;;;;;11.07;8.40;;;;;;;2.66;61.24;99979.83;1763388;80;27227;-92
2021/01/08 13:51:03;;;;;;;10.23;7.50;;;;;;;2.67;60.62;99985.42;1707194;82;21136;-92
2021/01/08 13:53:49;;;;;;;11.00;7.20;;;;;;;2.69;60.55;99979.05;1732529;80;21163;-91
2021/01/08 13:56:27;;;;;;;10.00;7.87;;;;;;;2.73;60.46;99980.41;1735652;79;21168;-92
2021/01/08 13:59:00;;;;;;;12.33;10.30;;;;;;;2.73;60.19;99978.25;1708420;81;21330;-92
2021/01/08 14:01:33;;;;;;;10.80;8.57;;;;;;;2.73;59.53;99972.98;1729710;81;21167;-92
2021/01/08 14:04:06;;;;;;;11.20;9.07;;;;;;;2.70;59.93;99974.12;1725089;81;21157;-91
2021/01/08 14:06:36;;;;;;;10.77;8.90;;;;;;;2.73;59.81;99980.41;1712860;81;21128;-90
2021/01/08 14:09:23;;;;;;;12.20;8.90;;;;;;;2.75;60.06;99978.11;1674241;84;21364;-94
2021/01/08 14:12:45;;;;;;;10.30;8.03;;;;;;;2.74;59.73;99979.92;1676872;83;21130;-92
2021/01/08 14:16:00;;;;;;;14.67;10.47;;;;;;;2.73;59.88;99991.41;1683585;82;21188;-93
2021/01/08 14:19:15;;;;;;;17.03;11.53;;;;;;;2.73;59.90;99991.41;1672330;82;21131;-94
2021/01/08 14:22:28;;;;;;;16.07;10.93;;;;;;;2.70;60.16;99993.03;1619134;85;21223;-95
2021/01/08 14:25:49;;;;;;;11.27;8.73;;;;;;;2.68;60.16;100003.70;1649889;81;21225;-95
2021/01/08 14:42:17;;;;;;;13.93;10.93;;;;;;;2.56;60.65;100011.92;1682189;83;21287;-93
2021/01/08 14:48:57;;;;;;;15.03;10.10;;;;;;;2.62;60.75;100013.97;1617017;80;21190;-92
2021/01/08 14:52:17;;;;;;;12.70;8.37;;;;;;;2.64;60.78;100016.81;1680905;83;21126;-94